Time;durP1;ratioP1;P1;durP2;ratioP2;P2;SDS_P1;SDS_P2;PMS_P1;PMS_P2;Temp;Humidity;BMP_temperature;BMP_pressure;BME280_temperature;BME280_humidity;BME280_pressure;Samples;Min_cycle;Max_cycle;Signal;HPM_P1;HPM_P2
2023/11/17 00:00:07;;;;;;;12.07;8.67;;;9.20;99.90;;;;;;4975919;28;20493;-68
2023/11/17 00:02:35;;;;;;;11.40;9.43;;;9.20;99.90;;;;;;4976719;28;20974;-68
2023/11/17 00:05:04;;;;;;;12.50;10.27;;;9.20;99.90;;;;;;4976942;28;20449;-68
2023/11/17 00:07:31;;;;;;;14.07;10.37;;;9.10;99.90;;;;;;4977076;28;20453;-68
2023/11/17 00:09:58;;;;;;;11.47;10.27;;;9.10;99.90;;;;;;4979168;28;20473;-68
2023/11/17 00:12:25;;;;;;;12.10;10.40;;;9.10;99.90;;;;;;4988686;28;20461;-68
2023/11/17 00:14:51;;;;;;;13.57;9.60;;;9.10;99.90;;;;;;4981603;28;21026;-67
2023/11/17 00:17:19;;;;;;;12.43;10.43;;;9.00;99.90;;;;;;4979583;28;20453;-67
2023/11/17 00:19:46;;;;;;;13.27;10.10;;;9.00;99.90;;;;;;4978602;28;20478;-67
2023/11/17 00:22:15;;;;;;;11.97;10.03;;;9.00;99.90;;;;;;4977665;28;20456;-67
2023/11/17 00:24:43;;;;;;;16.40;10.20;;;9.00;99.90;;;;;;4977667;28;20437;-67
2023/11/17 00:27:11;;;;;;;12.00;9.10;;;9.00;99.90;;;;;;4977127;28;20488;-67
2023/11/17 00:29:38;;;;;;;10.73;9.63;;;9.00;99.90;;;;;;4976703;28;20503;-67
2023/11/17 00:32:07;;;;;;;15.40;10.07;;;9.00;99.90;;;;;;4976439;28;20449;-67
2023/11/17 00:34:36;;;;;;;16.00;11.20;;;9.00;99.90;;;;;;4976606;28;20516;-67
2023/11/17 00:37:07;;;;;;;14.47;10.40;;;9.00;99.90;;;;;;4976818;28;20513;-67
2023/11/17 00:39:36;;;;;;;14.20;9.40;;;9.00;99.90;;;;;;4976488;28;20481;-67
2023/11/17 00:42:03;;;;;;;11.93;9.63;;;9.00;99.90;;;;;;4974813;28;20445;-67
2023/11/17 00:44:30;;;;;;;13.03;10.90;;;9.00;99.90;;;;;;4976496;28;20477;-67
2023/11/17 00:46:58;;;;;;;13.27;11.00;;;9.00;99.90;;;;;;4976166;28;20442;-67
2023/11/17 00:49:26;;;;;;;14.13;10.50;;;8.90;99.90;;;;;;4976046;28;20469;-67
2023/11/17 00:51:54;;;;;;;13.80;10.20;;;8.90;99.90;;;;;;4976132;28;20462;-67
2023/11/17 00:54:25;;;;;;;16.80;11.07;;;8.80;99.90;;;;;;4976056;28;20453;-67
2023/11/17 00:56:54;;;;;;;13.27;11.20;;;8.70;99.90;;;;;;4979256;28;20437;-67
2023/11/17 00:59:22;;;;;;;18.93;11.07;;;8.70;99.90;;;;;;4979443;28;20505;-67
2023/11/17 01:01:50;;;;;;;11.40;10.20;;;8.60;99.90;;;;;;4979746;28;20453;-67
2023/11/17 01:04:18;;;;;;;17.40;12.17;;;8.60;99.90;;;;;;4976778;28;20460;-67
2023/11/17 01:06:53;;;;;;;13.07;11.27;;;8.60;99.90;;;;;;4976425;28;20463;-67
2023/11/17 01:09:20;;;;;;;12.77;10.20;;;8.60;99.90;;;;;;4960222;28;20476;-67
2023/11/17 01:11:47;;;;;;;12.00;9.57;;;8.60;99.90;;;;;;4975845;28;20512;-67
2023/11/17 01:14:15;;;;;;;13.73;11.50;;;8.60;99.90;;;;;;4976031;28;20445;-67
2023/11/17 01:16:42;;;;;;;14.73;10.70;;;8.60;99.90;;;;;;4976806;28;20481;-67
2023/11/17 01:19:09;;;;;;;14.97;11.60;;;8.50;99.90;;;;;;4975951;28;20507;-67
2023/11/17 01:21:35;;;;;;;14.20;10.80;;;8.50;99.90;;;;;;4974456;28;20448;-68
2023/11/17 01:24:03;;;;;;;13.33;11.30;;;8.50;99.90;;;;;;4976084;28;20457;-67
2023/11/17 01:26:31;;;;;;;11.63;9.97;;;8.50;99.90;;;;;;4975559;28;20441;-67
2023/11/17 01:28:59;;;;;;;18.47;11.20;;;8.50;99.90;;;;;;4973777;28;20987;-66
2023/11/17 01:31:27;;;;;;;15.27;10.90;;;8.40;99.90;;;;;;4975192;28;20459;-67
2023/11/17 01:33:54;;;;;;;20.07;12.03;;;8.40;99.90;;;;;;4975242;28;20862;-67
2023/11/17 01:36:22;;;;;;;13.73;10.50;;;8.40;99.90;;;;;;4974743;28;20994;-67
2023/11/17 01:38:49;;;;;;;16.33;11.60;;;8.30;99.90;;;;;;4974781;28;20461;-67
2023/11/17 01:41:16;;;;;;;14.00;11.00;;;8.30;99.90;;;;;;4973655;28;20454;-67
2023/11/17 01:43:43;;;;;;;14.33;10.30;;;8.30;99.90;;;;;;4977255;28;20867;-67
2023/11/17 01:46:11;;;;;;;14.70;11.50;;;8.20;99.90;;;;;;4979108;28;20472;-67
2023/11/17 01:48:39;;;;;;;15.47;12.10;;;8.30;99.90;;;;;;4977565;28;20453;-67
2023/11/17 01:51:07;;;;;;;18.20;12.20;;;8.30;99.90;;;;;;4983622;28;20450;-67
2023/11/17 01:53:34;;;;;;;17.77;11.97;;;8.20;99.90;;;;;;4982942;28;20452;-67
2023/11/17 01:56:01;;;;;;;13.83;11.30;;;8.30;99.90;;;;;;4980343;28;21068;-67
2023/11/17 01:58:28;;;;;;;18.20;11.00;;;8.30;99.90;;;;;;4980255;28;20448;-67
2023/11/17 02:00:55;;;;;;;18.73;11.83;;;8.30;99.90;;;;;;4981041;28;20472;-67
2023/11/17 02:03:22;;;;;;;13.07;10.90;;;8.30;99.90;;;;;;4980211;28;20532;-67
2023/11/17 02:05:57;;;;;;;13.13;10.87;;;8.30;99.90;;;;;;4979001;28;20954;-67
2023/11/17 02:08:40;;;;;;;13.43;11.03;;;8.30;99.90;;;;;;4979073;28;20448;-67
2023/11/17 02:11:17;;;;;;;13.30;11.03;;;8.30;99.90;;;;;;4978750;28;20496;-67
2023/11/17 02:13:52;;;;;;;18.20;13.20;;;8.30;99.90;;;;;;4977985;28;20492;-67
2023/11/17 02:16:24;;;;;;;14.77;10.90;;;8.30;99.90;;;;;;4978244;28;20499;-67
2023/11/17 02:18:54;;;;;;;14.00;10.33;;;8.30;99.90;;;;;;4978134;28;20870;-67
2023/11/17 02:21:29;;;;;;;15.37;10.70;;;8.30;99.90;;;;;;4978308;28;20449;-66
2023/11/17 02:23:59;;;;;;;13.07;10.20;;;8.30;99.90;;;;;;4983980;28;20452;-66
2023/11/17 02:26:33;;;;;;;13.33;10.20;;;8.30;99.90;;;;;;4983510;28;20495;-67
2023/11/17 02:29:07;;;;;;;14.00;10.37;;;8.30;99.90;;;;;;4981193;28;20508;-66
2023/11/17 02:31:39;;;;;;;16.23;10.63;;;8.30;99.90;;;;;;4980149;28;20480;-66
2023/11/17 02:34:08;;;;;;;16.57;11.30;;;8.20;99.90;;;;;;4979565;28;20977;-66
2023/11/17 02:36:38;;;;;;;13.73;11.60;;;8.20;99.90;;;;;;4977819;28;21072;-66
2023/11/17 02:39:14;;;;;;;11.83;10.63;;;8.10;99.90;;;;;;4978644;28;20507;-66
2023/11/17 02:41:48;;;;;;;13.27;10.00;;;8.10;99.90;;;;;;4979269;28;20469;-66
2023/11/17 02:44:16;;;;;;;13.70;9.70;;;8.00;99.90;;;;;;4979171;28;20433;-66
2023/11/17 02:46:45;;;;;;;14.73;10.27;;;8.00;99.90;;;;;;4978802;28;20484;-66
2023/11/17 02:49:22;;;;;;;14.80;11.10;;;8.00;99.90;;;;;;4977028;28;20469;-66
2023/11/17 02:51:51;;;;;;;15.37;11.33;;;8.00;99.90;;;;;;4976811;28;20519;-66
2023/11/17 02:54:21;;;;;;;15.20;11.63;;;8.00;99.90;;;;;;4978387;28;20917;-66
2023/11/17 02:56:51;;;;;;;11.10;9.20;;;7.90;99.90;;;;;;4977872;28;20466;-68
2023/11/17 02:59:21;;;;;;;17.90;11.50;;;7.90;99.90;;;;;;4977209;28;20469;-67
2023/11/17 03:01:52;;;;;;;15.10;12.37;;;7.90;99.90;;;;;;4976543;28;20481;-66
2023/11/17 03:04:19;;;;;;;19.40;12.67;;;7.80;99.90;;;;;;4976799;28;20548;-66
2023/11/17 03:06:49;;;;;;;16.60;12.70;;;7.80;99.90;;;;;;4977892;28;20449;-66
2023/11/17 03:09:21;;;;;;;18.73;12.80;;;7.80;99.90;;;;;;4977537;28;20985;-66
2023/11/17 03:11:50;;;;;;;20.30;14.03;;;7.80;99.90;;;;;;4977322;28;20922;-66
2023/11/17 03:14:17;;;;;;;30.43;13.50;;;7.70;99.90;;;;;;4977179;28;20897;-66
2023/11/17 03:16:48;;;;;;;30.67;14.03;;;7.70;99.90;;;;;;4977600;28;20485;-66
2023/11/17 03:19:18;;;;;;;31.37;13.90;;;7.60;99.90;;;;;;4977560;28;20503;-66
2023/11/17 03:21:45;;;;;;;81.00;15.20;;;7.60;99.90;;;;;;4977523;28;20453;-66
2023/11/17 03:24:17;;;;;;;33.63;14.90;;;7.40;99.90;;;;;;4977780;28;20453;-66
2023/11/17 03:26:44;;;;;;;53.83;14.30;;;7.40;99.90;;;;;;4976984;28;20460;-66
2023/11/17 03:29:13;;;;;;;52.40;15.00;;;7.30;99.90;;;;;;4976943;28;20469;-66
2023/11/17 03:31:40;;;;;;;35.13;14.63;;;7.30;99.90;;;;;;4977799;28;20452;-66
2023/11/17 03:34:09;;;;;;;32.20;13.83;;;7.20;99.90;;;;;;4977594;28;20804;-66
2023/11/17 03:36:38;;;;;;;119.33;16.80;;;7.20;99.90;;;;;;4977747;28;20535;-66
2023/11/17 03:39:12;;;;;;;97.47;15.90;;;7.10;99.90;;;;;;4976445;28;20477;-66
2023/11/17 03:41:39;;;;;;;31.17;13.10;;;7.00;99.90;;;;;;4977616;28;20461;-66
2023/11/17 03:44:07;;;;;;;62.93;13.20;;;7.00;99.90;;;;;;4975688;28;20461;-65
2023/11/17 03:46:36;;;;;;;26.83;13.43;;;7.00;99.90;;;;;;4977231;28;20445;-66
2023/11/17 03:49:07;;;;;;;78.03;16.37;;;7.00;99.90;;;;;;4977235;28;20469;-66
2023/11/17 03:51:33;;;;;;;16.57;12.53;;;7.10;99.90;;;;;;4975792;28;20445;-66
2023/11/17 03:54:05;;;;;;;12.47;11.20;;;7.10;99.90;;;;;;4976869;28;20866;-66
2023/11/17 03:56:33;;;;;;;43.27;13.00;;;7.10;99.90;;;;;;4976739;28;20545;-66
2023/11/17 03:59:03;;;;;;;29.87;12.37;;;7.20;99.90;;;;;;4977224;28;20461;-66
2023/11/17 04:01:33;;;;;;;78.20;14.00;;;7.30;99.90;;;;;;4977947;28;20463;-66
2023/11/17 04:04:00;;;;;;;39.97;12.37;;;7.30;99.90;;;;;;4977564;28;20995;-66
2023/11/17 04:06:28;;;;;;;16.10;11.97;;;7.30;99.90;;;;;;4977323;28;20449;-66
2023/11/17 04:08:55;;;;;;;18.90;12.30;;;7.30;99.90;;;;;;4979312;28;20500;-66
2023/11/17 04:11:23;;;;;;;70.27;15.43;;;7.30;99.90;;;;;;4978923;28;20445;-66
2023/11/17 04:13:49;;;;;;;132.73;17.17;;;7.30;99.90;;;;;;4977156;28;20457;-65
2023/11/17 04:16:16;;;;;;;76.17;16.13;;;7.30;99.90;;;;;;4977466;28;20492;-65
2023/11/17 04:18:43;;;;;;;81.80;15.93;;;7.30;99.90;;;;;;4976141;28;20473;-65
2023/11/17 04:21:11;;;;;;;99.33;16.20;;;7.30;99.90;;;;;;4977171;28;20460;-65
2023/11/17 04:23:38;;;;;;;56.77;15.50;;;7.30;99.90;;;;;;4976934;28;20471;-65
2023/11/17 04:26:05;;;;;;;83.50;18.63;;;7.30;99.90;;;;;;4976492;28;20446;-65
2023/11/17 04:28:33;;;;;;;137.63;18.13;;;7.30;99.90;;;;;;4975996;28;20449;-65
2023/11/17 04:31:00;;;;;;;81.70;17.33;;;7.10;99.90;;;;;;4976767;28;20449;-65
2023/11/17 04:33:30;;;;;;;212.10;22.37;;;7.10;99.90;;;;;;4976219;28;20449;-65
2023/11/17 04:35:58;;;;;;;141.97;20.80;;;7.10;99.90;;;;;;4975488;28;20571;-65
2023/11/17 04:38:27;;;;;;;96.83;19.60;;;7.00;99.90;;;;;;4978238;28;20453;-65
2023/11/17 04:40:54;;;;;;;56.17;19.70;;;7.00;99.90;;;;;;4981859;28;20469;-65
2023/11/17 04:43:21;;;;;;;48.77;19.77;;;7.00;99.90;;;;;;4978481;28;20938;-65
2023/11/17 04:45:49;;;;;;;64.87;20.53;;;7.10;99.90;;;;;;4976937;28;20445;-66
2023/11/17 04:48:16;;;;;;;52.50;20.47;;;7.10;99.90;;;;;;4975518;28;20452;-65
2023/11/17 04:50:44;;;;;;;35.70;20.33;;;7.10;99.90;;;;;;4976033;28;20462;-65
2023/11/17 04:53:12;;;;;;;38.47;22.40;;;7.20;99.90;;;;;;4975434;28;20453;-65
2023/11/17 04:55:41;;;;;;;48.43;22.83;;;7.20;99.90;;;;;;4975136;28;20895;-66
2023/11/17 04:58:11;;;;;;;74.57;24.60;;;7.20;99.90;;;;;;4975556;28;20467;-66
2023/11/17 05:00:39;;;;;;;34.63;22.57;;;7.20;99.90;;;;;;4975716;28;20890;-66
2023/11/17 05:03:07;;;;;;;48.77;23.30;;;7.30;99.90;;;;;;4976380;28;20449;-66
2023/11/17 05:05:34;;;;;;;39.70;23.77;;;7.30;99.90;;;;;;4976168;28;20453;-66
2023/11/17 05:08:01;;;;;;;38.17;24.93;;;7.30;99.90;;;;;;4975959;28;20568;-66
2023/11/17 05:10:28;;;;;;;39.43;23.10;;;7.30;99.90;;;;;;4975849;28;20461;-66
2023/11/17 05:12:57;;;;;;;38.13;23.53;;;7.40;99.90;;;;;;4975543;28;20504;-66
2023/11/17 05:15:24;;;;;;;42.23;26.57;;;7.50;99.90;;;;;;4974266;28;20481;-66
2023/11/17 05:17:51;;;;;;;37.07;22.43;;;7.50;99.90;;;;;;4973992;28;20484;-66
2023/11/17 05:20:22;;;;;;;40.70;24.87;;;7.60;99.90;;;;;;4975595;28;20469;-66
2023/11/17 05:22:52;;;;;;;40.97;26.73;;;7.60;99.90;;;;;;4975398;28;20434;-66
2023/11/17 05:25:19;;;;;;;35.50;24.27;;;7.70;99.90;;;;;;4975177;28;20943;-66
2023/11/17 05:27:46;;;;;;;41.67;25.73;;;7.70;99.90;;;;;;4975132;28;20453;-66
2023/11/17 05:30:14;;;;;;;43.90;26.83;;;7.70;99.90;;;;;;4975403;28;20494;-66
2023/11/17 05:32:41;;;;;;;47.27;28.70;;;7.70;99.90;;;;;;4975243;28;20480;-66
2023/11/17 05:35:10;;;;;;;49.47;27.83;;;7.70;99.90;;;;;;4974666;28;20444;-66
2023/11/17 05:37:39;;;;;;;45.83;26.20;;;7.70;99.90;;;;;;4974840;28;20528;-66
2023/11/17 05:40:07;;;;;;;52.87;26.97;;;7.80;99.90;;;;;;4975162;28;20468;-66
2023/11/17 05:42:34;;;;;;;52.57;26.97;;;7.80;99.90;;;;;;4974643;28;20529;-66
2023/11/17 05:45:01;;;;;;;45.50;26.60;;;7.80;99.90;;;;;;4973481;28;20453;-66
2023/11/17 05:47:28;;;;;;;41.93;25.10;;;7.80;99.90;;;;;;4974935;28;20919;-66
2023/11/17 05:49:55;;;;;;;49.07;26.97;;;7.80;99.90;;;;;;4978713;28;20477;-66
2023/11/17 05:52:23;;;;;;;42.70;25.63;;;7.80;99.90;;;;;;4980273;28;20453;-67
2023/11/17 05:54:53;;;;;;;43.53;26.67;;;7.80;99.90;;;;;;4981426;28;20445;-66
2023/11/17 05:57:20;;;;;;;41.13;25.00;;;7.90;99.90;;;;;;4979966;28;20492;-67
2023/11/17 05:59:50;;;;;;;45.50;26.80;;;7.90;99.90;;;;;;4979756;28;20503;-67
2023/11/17 06:02:17;;;;;;;44.73;28.53;;;7.90;99.90;;;;;;4978354;28;20459;-67
2023/11/17 06:04:44;;;;;;;50.47;28.90;;;7.90;99.90;;;;;;4979246;28;20453;-67
2023/11/17 06:07:10;;;;;;;51.53;28.90;;;7.90;99.90;;;;;;4978459;28;20950;-67
2023/11/17 06:09:38;;;;;;;41.50;25.33;;;7.90;99.90;;;;;;4976441;28;20504;-66
2023/11/17 06:12:09;;;;;;;43.23;26.90;;;7.90;99.90;;;;;;4977105;28;20837;-67
2023/11/17 06:14:36;;;;;;;37.87;24.37;;;7.90;99.90;;;;;;4977360;28;20453;-67
2023/11/17 06:17:04;;;;;;;46.23;27.30;;;7.90;99.90;;;;;;4976642;28;20492;-67
2023/11/17 06:19:33;;;;;;;42.63;27.80;;;7.90;99.90;;;;;;4975733;28;20469;-67
2023/11/17 06:22:00;;;;;;;48.70;28.50;;;8.00;99.90;;;;;;4975560;28;20449;-67
2023/11/17 06:24:26;;;;;;;44.73;29.00;;;7.90;99.90;;;;;;4975930;28;20878;-67
2023/11/17 06:26:54;;;;;;;44.03;28.00;;;7.90;99.90;;;;;;4975100;28;20449;-67
2023/11/17 06:29:22;;;;;;;44.77;27.17;;;7.90;99.90;;;;;;4976011;28;20468;-67
2023/11/17 06:31:50;;;;;;;44.97;26.93;;;7.90;99.90;;;;;;4978663;28;20868;-66
2023/11/17 06:34:17;;;;;;;57.80;27.80;;;7.90;99.90;;;;;;4980269;28;20549;-67
2023/11/17 06:36:44;;;;;;;41.63;26.10;;;8.00;99.90;;;;;;4978723;28;20484;-67
2023/11/17 06:39:15;;;;;;;45.73;27.40;;;8.00;99.90;;;;;;4978270;28;20472;-67
2023/11/17 06:41:43;;;;;;;47.57;29.30;;;8.00;99.90;;;;;;4977101;28;20453;-67
2023/11/17 06:44:10;;;;;;;46.73;28.50;;;8.00;99.90;;;;;;4978528;28;20536;-67
2023/11/17 06:46:41;;;;;;;40.90;25.77;;;8.00;99.90;;;;;;4981830;28;20457;-67
2023/11/17 06:49:09;;;;;;;44.93;28.73;;;8.10;99.90;;;;;;4981036;28;20990;-67
2023/11/17 06:51:37;;;;;;;60.60;29.70;;;8.10;99.90;;;;;;4979983;28;20472;-67
2023/11/17 06:54:08;;;;;;;43.37;26.83;;;8.10;99.90;;;;;;4987411;28;20457;-67
2023/11/17 06:56:35;;;;;;;46.03;27.50;;;8.10;99.90;;;;;;4980651;28;20469;-67
2023/11/17 06:59:02;;;;;;;47.60;28.40;;;8.10;99.90;;;;;;4979591;28;20476;-67
2023/11/17 07:01:30;;;;;;;52.33;31.33;;;8.10;99.90;;;;;;4978590;28;20471;-67
2023/11/17 07:03:58;;;;;;;44.50;27.50;;;8.10;99.90;;;;;;4978395;28;20445;-67
2023/11/17 07:06:27;;;;;;;38.70;24.27;;;8.00;99.90;;;;;;4978095;28;20895;-67
2023/11/17 07:08:53;;;;;;;41.23;25.40;;;8.00;99.90;;;;;;4978611;28;20902;-67
2023/11/17 07:11:20;;;;;;;44.90;27.87;;;8.00;99.90;;;;;;4978313;28;20524;-67
2023/11/17 07:13:47;;;;;;;40.93;26.70;;;8.10;99.90;;;;;;4977627;28;20465;-67
2023/11/17 07:16:15;;;;;;;38.73;25.20;;;8.10;99.90;;;;;;4977805;28;20452;-67
2023/11/17 07:18:42;;;;;;;42.07;26.77;;;8.10;99.90;;;;;;4977441;28;20518;-67
2023/11/17 07:21:10;;;;;;;44.10;28.33;;;8.10;99.90;;;;;;4976450;28;20456;-69
2023/11/17 07:23:43;;;;;;;42.20;26.73;;;8.10;99.90;;;;;;4977509;28;20456;-66
2023/11/17 07:26:17;;;;;;;42.20;26.77;;;8.10;99.90;;;;;;4977433;28;20429;-66
2023/11/17 07:28:47;;;;;;;46.00;28.60;;;8.10;99.90;;;;;;4976152;28;20441;-66
2023/11/17 07:31:13;;;;;;;51.10;28.33;;;8.20;99.90;;;;;;4977203;28;20445;-66
2023/11/17 07:33:40;;;;;;;46.07;28.10;;;8.20;99.90;;;;;;4976916;28;20449;-66
2023/11/17 07:36:09;;;;;;;49.63;31.13;;;8.20;99.90;;;;;;4977056;28;20449;-66
2023/11/17 07:38:38;;;;;;;42.07;27.70;;;8.30;99.90;;;;;;4976830;28;20516;-66
2023/11/17 07:41:05;;;;;;;44.30;27.67;;;8.30;99.90;;;;;;4975550;28;20481;-67
2023/11/17 07:43:32;;;;;;;40.60;25.80;;;8.30;99.90;;;;;;4976873;28;20453;-67
2023/11/17 07:45:59;;;;;;;46.23;28.10;;;8.40;99.90;;;;;;4976680;28;20824;-66
2023/11/17 07:48:26;;;;;;;36.00;23.43;;;8.40;99.90;;;;;;4975804;28;20449;-67
2023/11/17 07:50:52;;;;;;;37.73;25.80;;;8.50;99.90;;;;;;4976500;28;20505;-66
2023/11/17 07:53:19;;;;;;;36.03;25.23;;;8.50;99.90;;;;;;4976759;28;20450;-66
2023/11/17 07:55:49;;;;;;;43.43;24.67;;;8.50;99.90;;;;;;4976036;28;20939;-67
2023/11/17 07:58:16;;;;;;;40.63;25.27;;;8.60;99.90;;;;;;4976719;28;21098;-67
2023/11/17 08:00:43;;;;;;;45.23;26.53;;;8.60;99.90;;;;;;4975985;28;20995;-67
2023/11/17 08:03:10;;;;;;;53.13;29.00;;;8.60;99.90;;;;;;4975487;28;20465;-67
2023/11/17 08:05:37;;;;;;;49.07;27.43;;;8.60;99.90;;;;;;4976281;28;20834;-67
2023/11/17 08:08:03;;;;;;;52.47;31.40;;;8.70;99.90;;;;;;4976066;28;20449;-67
2023/11/17 08:10:31;;;;;;;53.37;30.67;;;8.70;99.90;;;;;;4974939;28;20544;-67
2023/11/17 08:13:03;;;;;;;56.07;30.20;;;8.70;99.90;;;;;;4975927;28;20456;-67
2023/11/17 08:15:30;;;;;;;50.50;31.20;;;8.70;99.90;;;;;;4976045;28;20470;-67
2023/11/17 08:17:57;;;;;;;48.87;30.57;;;8.70;99.90;;;;;;4975950;28;20500;-67
2023/11/17 08:20:26;;;;;;;51.53;31.80;;;8.80;99.90;;;;;;4975952;28;20473;-67
2023/11/17 08:23:00;;;;;;;48.93;31.40;;;8.80;99.90;;;;;;4976021;28;20507;-67
2023/11/17 08:25:29;;;;;;;45.30;29.23;;;8.80;99.90;;;;;;4976019;28;20433;-67
2023/11/17 08:27:57;;;;;;;50.20;30.57;;;8.80;99.90;;;;;;4974922;28;20441;-68
2023/11/17 08:30:25;;;;;;;51.30;30.67;;;8.80;99.90;;;;;;4974200;28;20897;-67
2023/11/17 08:32:53;;;;;;;46.70;29.13;;;8.80;99.90;;;;;;4975465;28;20816;-67
2023/11/17 08:35:22;;;;;;;49.40;29.93;;;8.90;99.90;;;;;;4974360;28;20833;-67
2023/11/17 08:37:50;;;;;;;57.07;32.73;;;8.90;99.90;;;;;;4974099;28;20539;-67
2023/11/17 08:40:18;;;;;;;54.97;30.00;;;8.90;99.90;;;;;;4975171;28;20473;-67
2023/11/17 08:42:46;;;;;;;50.97;31.70;;;9.00;99.90;;;;;;4974434;28;20816;-67
2023/11/17 08:45:14;;;;;;;50.17;31.20;;;9.00;99.90;;;;;;4976644;28;20452;-67
2023/11/17 08:47:45;;;;;;;48.07;28.37;;;9.00;99.90;;;;;;4975724;28;20487;-67
2023/11/17 08:50:13;;;;;;;43.00;27.60;;;9.10;99.90;;;;;;4975261;28;20476;-67
2023/11/17 08:52:41;;;;;;;47.60;29.07;;;9.10;99.90;;;;;;4975085;28;20445;-67
2023/11/17 08:55:13;;;;;;;46.23;28.47;;;9.20;99.90;;;;;;4975578;28;20445;-67
2023/11/17 08:57:41;;;;;;;50.37;29.50;;;9.20;99.90;;;;;;4975290;28;20469;-67
2023/11/17 09:00:12;;;;;;;45.53;28.37;;;9.30;99.90;;;;;;4975472;28;20476;-67
2023/11/17 09:02:44;;;;;;;49.50;30.40;;;9.30;99.90;;;;;;4975318;28;20513;-67
2023/11/17 09:05:13;;;;;;;47.03;28.87;;;9.30;99.90;;;;;;4974885;28;20434;-67
2023/11/17 09:07:42;;;;;;;41.70;26.90;;;9.30;99.90;;;;;;4986318;28;21002;-67
2023/11/17 09:10:13;;;;;;;37.97;26.00;;;9.30;99.90;;;;;;4980545;28;20846;-67
2023/11/17 09:12:42;;;;;;;38.73;25.90;;;9.30;99.90;;;;;;4978543;28;20469;-67
2023/11/17 09:15:13;;;;;;;45.80;28.43;;;9.30;99.90;;;;;;4975058;28;20492;-67
2023/11/17 09:17:42;;;;;;;40.10;26.67;;;9.30;99.90;;;;;;4975320;28;20564;-67
2023/11/17 09:20:13;;;;;;;37.70;25.00;;;9.40;99.90;;;;;;4975644;28;20465;-67
2023/11/17 09:22:40;;;;;;;40.57;26.50;;;9.40;99.90;;;;;;4980086;28;20457;-70
2023/11/17 09:25:13;;;;;;;44.17;27.83;;;9.40;99.90;;;;;;4977121;28;20487;-69
2023/11/17 09:27:47;;;;;;;45.33;27.90;;;9.50;99.90;;;;;;4976397;28;20488;-72
2023/11/17 09:30:14;;;;;;;38.70;26.00;;;9.50;99.90;;;;;;4976097;28;20481;-71
2023/11/17 09:32:44;;;;;;;37.40;23.90;;;9.50;99.90;;;;;;4976811;28;20480;-72
2023/11/17 09:35:13;;;;;;;44.70;27.13;;;9.50;99.90;;;;;;4977187;28;20477;-72
2023/11/17 09:37:46;;;;;;;40.67;26.57;;;9.50;99.90;;;;;;4977174;28;20477;-72
2023/11/17 09:40:25;;;;;;;44.10;26.00;;;9.50;99.90;;;;;;4976681;28;20499;-71
2023/11/17 09:42:54;;;;;;;37.83;24.77;;;9.50;99.90;;;;;;4975572;28;20460;-71
2023/11/17 09:45:22;;;;;;;40.47;25.60;;;9.50;99.90;;;;;;4976474;28;20806;-72
2023/11/17 09:47:57;;;;;;;36.63;24.77;;;9.40;99.90;;;;;;4976359;28;20533;-72
2023/11/17 09:50:26;;;;;;;42.77;25.90;;;9.40;99.90;;;;;;4977936;28;20480;-71
2023/11/17 09:52:57;;;;;;;37.00;24.33;;;9.40;99.90;;;;;;4986362;28;20457;-72
2023/11/17 09:55:27;;;;;;;40.70;26.07;;;9.50;99.90;;;;;;4983735;28;20430;-72
2023/11/17 09:57:56;;;;;;;42.50;25.57;;;9.40;99.90;;;;;;4977253;28;20489;-72
2023/11/17 10:00:27;;;;;;;43.77;27.70;;;9.50;99.90;;;;;;4976708;28;21016;-71
2023/11/17 10:02:58;;;;;;;44.67;27.50;;;9.50;99.90;;;;;;4976635;28;20485;-71
2023/11/17 10:05:34;;;;;;;42.57;26.17;;;9.60;99.90;;;;;;4978794;28;20524;-72
2023/11/17 10:08:07;;;;;;;42.70;27.57;;;9.60;99.90;;;;;;4980827;28;20453;-72
2023/11/17 10:10:37;;;;;;;45.00;28.10;;;9.60;99.90;;;;;;4980315;28;21010;-71
2023/11/17 10:13:05;;;;;;;40.87;26.97;;;9.70;99.90;;;;;;4980307;28;20504;-71
2023/11/17 10:15:41;;;;;;;40.97;25.60;;;9.70;99.90;;;;;;4980120;28;21001;-71
2023/11/17 10:18:12;;;;;;;45.10;29.47;;;9.80;99.90;;;;;;4979877;28;20543;-71
2023/11/17 10:20:39;;;;;;;43.90;29.30;;;9.80;99.90;;;;;;4980336;28;20539;-71
2023/11/17 10:23:06;;;;;;;45.63;29.40;;;9.80;99.90;;;;;;4980607;28;20456;-72
2023/11/17 10:25:34;;;;;;;45.77;30.27;;;9.80;99.90;;;;;;4980427;28;20855;-71
2023/11/17 10:28:02;;;;;;;49.63;33.50;;;9.80;99.90;;;;;;4981109;28;20445;-72
2023/11/17 10:30:32;;;;;;;45.10;30.17;;;9.80;99.90;;;;;;4980548;28;20547;-71
2023/11/17 10:33:06;;;;;;;50.83;32.10;;;9.80;99.90;;;;;;4981020;28;20449;-72
2023/11/17 10:35:35;;;;;;;43.07;28.83;;;9.80;99.90;;;;;;4980034;28;20464;-71
2023/11/17 10:38:05;;;;;;;47.50;30.57;;;9.80;99.90;;;;;;4979929;28;21010;-72
2023/11/17 10:40:35;;;;;;;54.53;30.90;;;9.80;99.90;;;;;;4981064;28;20469;-71
2023/11/17 10:43:04;;;;;;;53.50;29.60;;;9.80;99.90;;;;;;4980987;28;20457;-71
2023/11/17 10:45:32;;;;;;;51.70;32.83;;;9.90;99.90;;;;;;4982000;28;20507;-71
2023/11/17 10:48:07;;;;;;;46.10;30.80;;;9.90;99.90;;;;;;4980879;28;20476;-71
2023/11/17 10:50:35;;;;;;;47.07;29.50;;;10.00;99.90;;;;;;4980750;28;20523;-71
2023/11/17 10:53:19;;;;;;;48.07;30.20;;;10.00;99.90;;;;;;4980932;28;20456;-71
2023/11/17 10:55:48;;;;;;;44.20;30.20;;;10.00;99.90;;;;;;4980683;28;20492;-71
2023/11/17 10:58:16;;;;;;;47.83;31.00;;;10.10;99.90;;;;;;4980974;28;20489;-71
2023/11/17 11:00:44;;;;;;;51.40;31.23;;;10.10;99.90;;;;;;4980648;28;20568;-71
2023/11/17 11:03:13;;;;;;;51.10;31.27;;;10.10;99.90;;;;;;4980494;28;20951;-71
2023/11/17 11:05:42;;;;;;;49.83;30.73;;;10.20;99.90;;;;;;4980557;28;20991;-72
2023/11/17 11:08:17;;;;;;;45.10;29.50;;;10.20;99.90;;;;;;4980793;28;20457;-71
2023/11/17 11:10:55;;;;;;;48.30;31.77;;;10.20;99.90;;;;;;4979003;28;20472;-71
2023/11/17 11:13:29;;;;;;;50.90;30.93;;;10.20;99.90;;;;;;4980183;28;20457;-72
2023/11/17 11:16:00;;;;;;;44.00;31.10;;;10.30;99.90;;;;;;4979118;28;20456;-71
2023/11/17 11:18:32;;;;;;;52.80;31.47;;;10.30;99.90;;;;;;4977976;28;20473;-71
2023/11/17 11:21:00;;;;;;;48.90;32.00;;;10.40;99.90;;;;;;4988150;28;20448;-70
2023/11/17 11:23:28;;;;;;;49.30;32.00;;;10.40;99.90;;;;;;4986512;28;20449;-71
2023/11/17 11:26:02;;;;;;;51.53;32.47;;;10.50;99.90;;;;;;4982868;28;20441;-71
2023/11/17 11:28:30;;;;;;;49.40;33.87;;;10.60;99.90;;;;;;4982008;28;20432;-71
2023/11/17 11:30:59;;;;;;;55.70;33.70;;;10.80;99.90;;;;;;4980659;28;20469;-71
2023/11/17 11:33:30;;;;;;;40.53;28.23;;;10.90;99.90;;;;;;4980840;28;20450;-71
2023/11/17 11:35:57;;;;;;;49.57;32.60;;;11.00;99.90;;;;;;4979273;28;20464;-71
2023/11/17 11:38:27;;;;;;;47.57;29.73;;;11.20;99.90;;;;;;4979528;28;20567;-72
2023/11/17 11:40:54;;;;;;;50.37;29.70;;;11.30;99.90;;;;;;4980097;28;20469;-71
2023/11/17 11:43:21;;;;;;;48.43;31.80;;;11.50;99.90;;;;;;4978171;28;20853;-70
2023/11/17 11:45:51;;;;;;;43.63;27.90;;;11.60;99.90;;;;;;4978753;28;20943;-71
2023/11/17 11:48:21;;;;;;;49.83;31.60;;;11.80;99.90;;;;;;4978997;28;20504;-71
2023/11/17 11:50:52;;;;;;;46.43;30.00;;;11.90;99.90;;;;;;4979441;28;20469;-71
2023/11/17 11:53:36;;;;;;;43.00;28.80;;;12.00;99.90;;;;;;4979396;28;20448;-72
2023/11/17 11:56:11;;;;;;;42.77;28.10;;;12.00;99.90;;;;;;4978725;28;20492;-71
2023/11/17 11:58:43;;;;;;;38.13;26.40;;;12.00;99.50;;;;;;4978503;28;20468;-71
2023/11/17 12:01:12;;;;;;;40.93;29.37;;;12.00;99.10;;;;;;4981332;28;20440;-72
2023/11/17 12:03:55;;;;;;;45.27;27.70;;;11.90;98.90;;;;;;4994947;28;20450;-74
2023/11/17 12:06:22;;;;;;;42.43;28.63;;;11.90;98.70;;;;;;4992609;28;20525;-74
2023/11/17 12:08:56;;;;;;;42.87;28.23;;;11.90;98.60;;;;;;4980978;28;20449;-73
2023/11/17 12:11:30;;;;;;;42.00;26.73;;;11.80;98.60;;;;;;4981010;28;20461;-72
2023/11/17 12:13:58;;;;;;;41.30;27.27;;;11.80;98.60;;;;;;4978398;28;20459;-72
2023/11/17 12:16:41;;;;;;;42.87;28.20;;;11.80;98.70;;;;;;4976987;28;20461;-72
2023/11/17 12:19:09;;;;;;;46.10;30.17;;;11.80;98.70;;;;;;4977238;28;20507;-72
2023/11/17 12:21:39;;;;;;;46.00;30.17;;;11.80;98.80;;;;;;4976833;28;20449;-72
2023/11/17 12:24:12;;;;;;;43.23;27.83;;;11.80;98.80;;;;;;4976991;28;20453;-74
2023/11/17 12:26:42;;;;;;;39.10;25.07;;;11.80;98.70;;;;;;4976935;28;20453;-74
2023/11/17 12:29:11;;;;;;;44.17;26.70;;;11.90;98.60;;;;;;4976345;28;20468;-73
2023/11/17 12:31:39;;;;;;;40.17;27.63;;;11.90;98.40;;;;;;4976915;28;20453;-73
2023/11/17 12:34:08;;;;;;;39.87;26.33;;;12.00;98.30;;;;;;4977190;28;20548;-73
2023/11/17 12:36:35;;;;;;;39.30;26.73;;;12.00;98.10;;;;;;4977050;28;20453;-72
2023/11/17 12:39:07;;;;;;;35.33;25.00;;;12.00;97.90;;;;;;4975451;28;20512;-72
2023/11/17 12:41:36;;;;;;;38.23;25.73;;;12.00;97.50;;;;;;4977340;28;20463;-73
2023/11/17 12:44:06;;;;;;;38.60;26.20;;;12.10;97.30;;;;;;4977006;28;20457;-73